createdAt,value
2018-06-30T00:00:16.922Z,26.59
2018-06-30T00:01:15.775Z,26.50
2018-06-30T00:03:09.137Z,26.50
2018-06-30T00:04:09.127Z,26.59
2018-06-30T00:06:03.244Z,26.50
2018-06-30T00:07:02.814Z,26.68
2018-06-30T00:08:56.152Z,26.59
2018-06-30T00:09:56.153Z,26.68
2018-06-30T00:11:49.379Z,26.68
2018-06-30T00:12:49.158Z,26.68
2018-06-30T00:14:42.505Z,26.50
2018-06-30T00:15:42.515Z,26.50
2018-06-30T00:17:36.510Z,26.68
2018-06-30T00:18:36.188Z,26.68
2018-06-30T00:20:29.547Z,26.68
2018-06-30T00:21:29.195Z,26.78
2018-06-30T00:23:22.726Z,26.68
2018-06-30T00:24:22.547Z,26.59
2018-06-30T00:26:15.934Z,26.50
2018-06-30T00:27:15.890Z,26.59
2018-06-30T00:29:09.797Z,26.59
2018-06-30T00:30:09.258Z,26.70
2018-06-30T00:32:03.190Z,26.61
2018-06-30T00:33:02.597Z,26.51
2018-06-30T00:34:56.170Z,26.51
2018-06-30T00:35:56.278Z,26.41
2018-06-30T00:37:49.633Z,26.31
2018-06-30T00:38:49.622Z,26.61
2018-06-30T00:40:43.181Z,26.31
2018-06-30T00:41:42.947Z,26.31
2018-06-30T00:43:36.307Z,26.31
2018-06-30T00:44:35.980Z,26.31
2018-06-30T00:46:29.556Z,26.41
2018-06-30T00:47:29.324Z,26.31
2018-06-30T00:49:23.024Z,26.31
2018-06-30T00:50:22.993Z,26.31
2018-06-30T00:52:16.578Z,26.31
2018-06-30T00:53:16.358Z,26.20
2018-06-30T00:55:10.304Z,26.31
2018-06-30T00:56:09.692Z,26.41
2018-06-30T00:58:03.268Z,26.31
2018-06-30T00:59:02.719Z,26.31
2018-06-30T01:00:56.071Z,26.31
2018-06-30T01:01:56.399Z,26.31
2018-06-30T01:03:49.972Z,25.93
2018-06-30T01:04:49.740Z,26.03
2018-06-30T01:06:43.194Z,26.12
2018-06-30T01:07:42.733Z,26.03
2018-06-30T01:09:36.605Z,25.83
2018-06-30T01:10:36.103Z,26.03
2018-06-30T01:12:29.454Z,25.93
2018-06-30T01:13:29.435Z,26.03
2018-06-30T01:15:23.365Z,25.73
2018-06-30T01:16:23.136Z,25.83
2018-06-30T01:18:16.142Z,25.83
2018-06-30T01:19:16.475Z,26.03
2018-06-30T01:21:09.677Z,26.12
2018-06-30T01:22:09.811Z,26.12
2018-06-30T01:24:02.827Z,25.83
2018-06-30T01:25:02.834Z,25.73
2018-06-30T01:26:56.720Z,25.94
2018-06-30T01:27:56.163Z,25.73
2018-06-30T01:29:49.534Z,25.65
2018-06-30T01:30:49.523Z,25.55
2018-06-30T01:32:43.414Z,25.55
2018-06-30T01:33:43.228Z,25.46
2018-06-30T01:35:36.562Z,25.46
2018-06-30T01:36:36.193Z,25.55
2018-06-30T01:38:29.764Z,25.65
2018-06-30T01:39:29.908Z,25.55
2018-06-30T01:41:23.834Z,25.55
2018-06-30T01:42:23.248Z,25.46
2018-06-30T01:44:16.771Z,25.65
2018-06-30T01:45:16.261Z,25.65
2018-06-30T01:47:09.624Z,25.65
2018-06-30T01:48:09.950Z,25.65
2018-06-30T01:50:03.520Z,25.36
2018-06-30T01:51:02.979Z,25.55
2018-06-30T01:52:56.653Z,25.36
2018-06-30T01:53:56.307Z,25.55
2018-06-30T01:55:50.452Z,25.26
2018-06-30T01:56:49.656Z,25.18
2018-06-30T01:58:43.434Z,25.36
2018-06-30T01:59:43.321Z,25.46
2018-06-30T02:01:36.924Z,25.26
2018-06-30T02:02:36.335Z,25.16
2018-06-30T02:04:29.703Z,25.55
2018-06-30T02:05:29.691Z,25.27
2018-06-30T02:07:23.265Z,25.36
2018-06-30T02:08:23.035Z,25.56
2018-06-30T02:10:15.936Z,25.26
2018-06-30T02:11:15.890Z,25.16
2018-06-30T02:13:10.377Z,25.36
2018-06-30T02:14:09.262Z,25.36
2018-06-30T02:16:02.671Z,25.55
2018-06-30T02:17:02.936Z,25.36
2018-06-30T02:18:56.511Z,25.26
2018-06-30T02:19:56.286Z,25.26
2018-06-30T02:21:49.640Z,25.36
2018-06-30T02:22:49.276Z,25.36
2018-06-30T02:24:43.206Z,25.36
2018-06-30T02:25:42.652Z,25.36
2018-06-30T02:27:36.322Z,25.16
2018-06-30T02:28:36.304Z,25.26
2018-06-30T02:30:29.594Z,25.26
2018-06-30T02:31:29.680Z,25.46
2018-06-30T02:33:22.706Z,25.36
2018-06-30T02:34:23.009Z,25.36
2018-06-30T02:36:16.546Z,25.36
2018-06-30T02:37:16.033Z,25.36
2018-06-30T02:39:09.780Z,25.16
2018-06-30T02:40:09.720Z,25.26
2018-06-30T02:42:02.925Z,25.26
2018-06-30T02:43:02.740Z,25.26
2018-06-30T02:44:56.185Z,25.16
2018-06-30T02:45:56.497Z,25.46
2018-06-30T02:47:49.616Z,25.36
2018-06-30T02:48:49.418Z,25.55
2018-06-30T02:50:43.128Z,25.36
2018-06-30T02:51:43.097Z,25.55
2018-06-30T02:53:36.914Z,25.26
2018-06-30T02:54:36.443Z,25.36
2018-06-30T02:56:29.477Z,25.46
2018-06-30T02:57:29.482Z,25.26
2018-06-30T02:59:23.051Z,25.26
2018-06-30T03:00:22.796Z,25.36
2018-06-30T03:02:16.203Z,25.36
2018-06-30T03:03:16.490Z,25.16
2018-06-30T03:05:09.767Z,25.46
2018-06-30T03:06:09.857Z,25.36
2018-06-30T03:08:03.783Z,25.36
2018-06-30T03:09:03.205Z,25.46
2018-06-30T03:10:56.453Z,25.36
2018-06-30T03:11:56.194Z,25.36
2018-06-30T03:13:49.577Z,25.16
2018-06-30T03:14:49.907Z,25.16
2018-06-30T03:16:43.752Z,25.36
2018-06-30T03:17:42.900Z,25.26
2018-06-30T03:19:36.263Z,25.36
2018-06-30T03:20:36.269Z,25.36
2018-06-30T03:22:30.166Z,25.26
2018-06-30T03:23:29.917Z,25.26
2018-06-30T03:25:23.293Z,25.36
2018-06-30T03:26:23.272Z,25.26
2018-06-30T03:28:16.487Z,25.36
2018-06-30T03:29:16.300Z,25.36
2018-06-30T03:31:09.636Z,25.55
2018-06-30T03:32:09.983Z,25.65
2018-06-30T03:34:03.202Z,25.36
2018-06-30T03:35:02.990Z,25.36
2018-06-30T03:36:56.671Z,25.26
2018-06-30T03:37:56.354Z,25.55
2018-06-30T03:39:49.940Z,25.26
2018-06-30T03:40:49.681Z,25.36
2018-06-30T03:42:43.369Z,25.16
2018-06-30T03:43:43.035Z,25.55
2018-06-30T03:45:36.601Z,25.26
2018-06-30T03:46:36.722Z,25.36
2018-06-30T03:48:30.076Z,25.26
2018-06-30T03:49:30.068Z,25.26
2018-06-30T03:51:23.871Z,25.26
2018-06-30T03:52:23.091Z,25.26
2018-06-30T03:54:17.371Z,25.26
2018-06-30T03:55:16.756Z,25.36
2018-06-30T03:57:10.005Z,25.26
2018-06-30T03:58:09.778Z,25.26
2018-06-30T04:00:03.486Z,25.26
2018-06-30T04:01:03.470Z,25.36
2018-06-30T04:02:57.047Z,25.46
2018-06-30T04:03:56.799Z,25.36
2018-06-30T04:05:50.426Z,25.26
2018-06-30T04:06:50.154Z,25.46
2018-06-30T04:08:43.379Z,25.16
2018-06-30T04:09:43.157Z,25.26
2018-06-30T04:11:36.527Z,25.26
2018-06-30T04:12:36.520Z,25.26
2018-06-30T04:14:30.385Z,25.46
2018-06-30T04:15:30.212Z,25.16
2018-06-30T04:17:24.144Z,25.46
2018-06-30T04:18:23.215Z,25.26
2018-06-30T04:20:16.736Z,25.26
2018-06-30T04:21:16.883Z,25.26
2018-06-30T04:23:09.920Z,25.26
2018-06-30T04:24:10.257Z,25.36
2018-06-30T04:26:04.401Z,25.26
2018-06-30T04:27:03.256Z,25.36
2018-06-30T04:28:56.612Z,25.36
2018-06-30T04:29:56.611Z,25.26
2018-06-30T04:31:50.520Z,25.46
2018-06-30T04:32:49.952Z,25.26
2018-06-30T04:34:43.750Z,25.36
2018-06-30T04:35:43.639Z,25.55
2018-06-30T04:37:36.839Z,25.36
2018-06-30T04:38:36.661Z,25.65
2018-06-30T04:40:29.867Z,25.46
2018-06-30T04:41:29.835Z,25.46
2018-06-30T04:43:23.444Z,25.55
2018-06-30T04:44:23.193Z,25.55
2018-06-30T04:46:16.559Z,25.36
2018-06-30T04:47:16.531Z,25.36
2018-06-30T04:49:10.706Z,25.36
2018-06-30T04:50:09.904Z,25.46
2018-06-30T04:52:03.252Z,25.55
2018-06-30T04:53:02.889Z,25.26
2018-06-30T04:54:56.804Z,25.84
2018-06-30T04:55:56.257Z,25.65
2018-06-30T04:57:49.951Z,25.55
2018-06-30T04:58:49.925Z,25.65
2018-06-30T05:00:43.548Z,25.65
2018-06-30T05:01:43.302Z,25.74
2018-06-30T05:03:36.325Z,25.74
2018-06-30T05:04:36.298Z,25.36
2018-06-30T05:06:29.970Z,25.46
2018-06-30T05:07:29.644Z,25.65
2018-06-30T05:09:23.345Z,25.74
2018-06-30T05:10:23.345Z,25.55
2018-06-30T05:12:16.932Z,25.74
2018-06-30T05:13:16.709Z,25.65
2018-06-30T05:15:09.700Z,25.55
2018-06-30T05:16:09.695Z,25.46
2018-06-30T05:18:03.623Z,25.74
2018-06-30T05:19:03.075Z,25.55
2018-06-30T05:20:56.386Z,25.65
2018-06-30T05:21:56.723Z,25.46
2018-06-30T05:23:50.316Z,25.46
2018-06-30T05:24:50.071Z,25.65
2018-06-30T05:26:43.449Z,25.46
2018-06-30T05:27:43.425Z,25.55
2018-06-30T05:29:36.999Z,25.46
2018-06-30T05:30:36.439Z,25.46
2018-06-30T05:32:29.806Z,25.55
2018-06-30T05:33:29.859Z,25.36
2018-06-30T05:35:23.949Z,25.46
2018-06-30T05:36:23.133Z,25.55
2018-06-30T05:38:16.828Z,25.55
2018-06-30T05:39:16.837Z,25.36
2018-06-30T05:41:10.061Z,25.46
2018-06-30T05:42:09.849Z,25.55
2018-06-30T05:44:03.538Z,25.55
2018-06-30T05:45:03.185Z,25.55
2018-06-30T05:46:56.762Z,25.65
2018-06-30T05:47:56.868Z,25.46
2018-06-30T05:49:50.805Z,25.55
2018-06-30T05:50:50.209Z,25.55
2018-06-30T05:52:43.443Z,25.55
2018-06-30T05:53:43.571Z,25.74
2018-06-30T05:55:36.899Z,25.46
2018-06-30T05:56:36.586Z,25.55
2018-06-30T05:58:30.140Z,25.55
2018-06-30T05:59:29.922Z,25.55
2018-06-30T06:01:23.599Z,25.55
2018-06-30T06:02:23.272Z,25.46
2018-06-30T06:04:17.136Z,25.74
2018-06-30T06:05:16.948Z,25.46
2018-06-30T06:07:10.573Z,25.46
2018-06-30T06:08:10.302Z,25.74
2018-06-30T06:10:03.895Z,25.94
2018-06-30T06:11:03.667Z,25.84
2018-06-30T06:12:56.995Z,25.94
2018-06-30T06:13:56.998Z,25.73
2018-06-30T06:15:50.580Z,25.63
2018-06-30T06:16:50.364Z,25.93
2018-06-30T06:18:43.361Z,26.03
2018-06-30T06:19:43.380Z,25.73
2018-06-30T06:21:36.958Z,25.83
2018-06-30T06:22:36.720Z,25.94
2018-06-30T06:24:30.089Z,25.73
2018-06-30T06:25:30.074Z,25.93
2018-06-30T06:27:23.673Z,25.83
2018-06-30T06:28:23.759Z,25.83
2018-06-30T06:30:16.764Z,25.94
2018-06-30T06:31:16.761Z,25.93
2018-06-30T06:33:10.314Z,25.93
2018-06-30T06:34:10.466Z,25.93
2018-06-30T06:36:03.455Z,25.84
2018-06-30T06:37:03.800Z,26.03
2018-06-30T06:38:57.044Z,25.73
2018-06-30T06:39:57.170Z,25.83
2018-06-30T06:41:50.145Z,25.83
2018-06-30T06:42:50.514Z,25.94
2018-06-30T06:44:44.074Z,25.83
2018-06-30T06:45:43.487Z,25.93
2018-06-30T06:47:36.874Z,26.03
2018-06-30T06:48:36.830Z,25.83
2018-06-30T06:50:31.356Z,25.73
2018-06-30T06:51:30.542Z,25.74
2018-06-30T06:53:23.924Z,26.03
2018-06-30T06:54:23.537Z,25.63
2018-06-30T06:56:17.631Z,25.73
2018-06-30T06:57:17.247Z,25.73
2018-06-30T06:59:10.613Z,25.73
2018-06-30T07:00:10.606Z,25.73
2018-06-30T07:02:03.826Z,25.73
2018-06-30T07:03:03.991Z,25.93
2018-06-30T07:04:56.958Z,25.73
2018-06-30T07:05:56.954Z,25.73
2018-06-30T07:07:50.816Z,25.93
2018-06-30T07:08:50.296Z,26.03
2018-06-30T07:10:43.648Z,26.03
2018-06-30T07:11:43.644Z,26.03
2018-06-30T07:13:37.634Z,25.83
2018-06-30T07:14:36.507Z,26.03
2018-06-30T07:16:29.869Z,25.93
2018-06-30T07:17:30.207Z,26.03
2018-06-30T07:19:23.812Z,26.03
2018-06-30T07:20:23.555Z,26.04
2018-06-30T07:22:16.908Z,25.93
2018-06-30T07:23:16.886Z,25.83
2018-06-30T07:25:10.742Z,26.03
2018-06-30T07:26:09.872Z,25.83
2018-06-30T07:28:03.605Z,25.93
2018-06-30T07:29:03.584Z,25.84
2018-06-30T07:30:56.827Z,25.93
2018-06-30T07:31:56.933Z,25.73
2018-06-30T07:33:50.299Z,25.83
2018-06-30T07:34:50.270Z,26.03
2018-06-30T07:36:43.467Z,25.83
2018-06-30T07:37:43.285Z,26.03
2018-06-30T07:39:37.588Z,26.03
2018-06-30T07:40:36.635Z,25.93
2018-06-30T07:42:30.541Z,25.93
2018-06-30T07:43:30.081Z,25.93
2018-06-30T07:45:23.914Z,25.93
2018-06-30T07:46:23.675Z,25.83
2018-06-30T07:48:17.540Z,25.94
2018-06-30T07:49:17.024Z,25.73
2018-06-30T07:51:10.364Z,26.03
2018-06-30T07:52:10.372Z,25.93
2018-06-30T07:54:03.911Z,25.83
2018-06-30T07:55:03.700Z,25.83
2018-06-30T07:56:57.075Z,25.93
2018-06-30T07:57:56.703Z,25.83
2018-06-30T07:59:50.609Z,25.93
2018-06-30T08:00:50.065Z,25.83
2018-06-30T08:02:43.442Z,25.83
2018-06-30T08:03:43.445Z,25.83
2018-06-30T08:05:36.991Z,25.93
2018-06-30T08:06:36.794Z,25.93
2018-06-30T08:08:30.131Z,26.03
2018-06-30T08:09:30.140Z,26.12
2018-06-30T08:11:24.307Z,25.93
2018-06-30T08:12:23.826Z,26.03
2018-06-30T08:14:16.821Z,26.12
2018-06-30T08:15:17.174Z,26.03
2018-06-30T08:17:10.755Z,26.03
2018-06-30T08:18:10.535Z,26.12
2018-06-30T08:20:03.543Z,26.12
2018-06-30T08:21:03.519Z,26.12
2018-06-30T08:22:57.174Z,26.12
2018-06-30T08:23:56.887Z,25.93
2018-06-30T08:25:50.564Z,26.21
2018-06-30T08:26:50.222Z,26.03
2018-06-30T08:28:44.208Z,26.12
2018-06-30T08:29:43.906Z,26.41
2018-06-30T08:31:36.902Z,26.31
2018-06-30T08:32:37.269Z,26.31
2018-06-30T08:34:31.045Z,26.31
2018-06-30T08:35:30.596Z,26.31
2018-06-30T08:37:23.961Z,26.31
2018-06-30T08:38:23.965Z,26.41
2018-06-30T08:40:17.503Z,25.93
2018-06-30T08:41:16.946Z,26.41
2018-06-30T08:43:11.264Z,26.03
2018-06-30T08:44:10.307Z,26.03
2018-06-30T08:46:04.796Z,26.03
2018-06-30T08:47:03.644Z,26.03
2018-06-30T08:48:57.107Z,26.12
2018-06-30T08:49:57.011Z,26.12
2018-06-30T08:51:51.551Z,26.03
2018-06-30T08:52:50.689Z,25.83
2018-06-30T08:54:44.046Z,25.83
2018-06-30T08:55:44.163Z,26.31
2018-06-30T08:57:38.163Z,26.41
2018-06-30T08:58:37.058Z,26.31
2018-06-30T09:00:30.438Z,26.31
2018-06-30T09:01:30.751Z,25.93
2018-06-30T09:03:24.347Z,26.41
2018-06-30T09:04:24.101Z,26.31
2018-06-30T09:06:17.495Z,26.31
2018-06-30T09:07:17.105Z,26.31
2018-06-30T09:09:10.641Z,26.41
2018-06-30T09:10:10.799Z,26.41
2018-06-30T09:12:03.874Z,26.12
2018-06-30T09:13:04.146Z,25.83
2018-06-30T09:14:57.701Z,26.41
2018-06-30T09:15:57.490Z,26.31
2018-06-30T09:17:50.843Z,25.63
2018-06-30T09:18:50.484Z,26.31
2018-06-30T09:20:44.086Z,26.31
2018-06-30T09:21:43.869Z,25.93
2018-06-30T09:23:37.682Z,26.41
2018-06-30T09:24:37.567Z,26.31
2018-06-30T09:26:31.733Z,26.31
2018-06-30T09:27:30.933Z,26.31
2018-06-30T09:29:24.269Z,26.31
2018-06-30T09:30:24.278Z,26.41
2018-06-30T09:32:17.800Z,25.93
2018-06-30T09:33:17.627Z,26.31
2018-06-30T09:35:10.620Z,26.31
2018-06-30T09:36:10.974Z,26.31
2018-06-30T09:38:04.151Z,26.31
2018-06-30T09:39:03.990Z,26.41
2018-06-30T09:40:57.898Z,26.31
2018-06-30T09:41:57.316Z,26.41
2018-06-30T09:43:51.240Z,26.41
2018-06-30T09:44:50.670Z,26.31
2018-06-30T09:46:44.373Z,26.51
2018-06-30T09:47:44.010Z,26.41
2018-06-30T09:49:37.936Z,25.63
2018-06-30T09:50:37.705Z,26.41
2018-06-30T09:52:30.694Z,26.31
2018-06-30T09:53:31.038Z,26.41
2018-06-30T09:55:24.614Z,26.31
2018-06-30T09:56:24.396Z,26.31
2018-06-30T09:58:18.010Z,26.31
2018-06-30T09:59:17.407Z,26.41
2018-06-30T10:01:11.385Z,26.41
2018-06-30T10:02:11.110Z,26.41
2018-06-30T10:04:04.443Z,26.41
2018-06-30T10:05:04.282Z,26.31
2018-06-30T10:06:58.047Z,26.31
2018-06-30T10:07:57.439Z,26.31
2018-06-30T10:09:51.235Z,26.41
2018-06-30T10:10:51.142Z,26.21
2018-06-30T10:12:44.387Z,26.31
2018-06-30T10:13:44.127Z,26.31
2018-06-30T10:15:38.086Z,26.41
2018-06-30T10:16:37.840Z,26.31
2018-06-30T10:18:31.044Z,26.31
2018-06-30T10:19:31.208Z,26.31
2018-06-30T10:21:25.142Z,26.31
2018-06-30T10:22:24.514Z,26.31
2018-06-30T10:24:18.080Z,26.31
2018-06-30T10:25:17.542Z,26.41
2018-06-30T10:27:11.824Z,26.31
2018-06-30T10:28:10.878Z,26.31
2018-06-30T10:30:04.816Z,26.41
2018-06-30T10:31:04.259Z,26.41
2018-06-30T10:32:57.584Z,26.41
2018-06-30T10:33:57.588Z,26.41
2018-06-30T10:35:51.110Z,26.31
2018-06-30T10:36:50.919Z,26.41
2018-06-30T10:38:44.261Z,26.31
2018-06-30T10:39:44.628Z,26.31
2018-06-30T10:41:38.174Z,26.31
2018-06-30T10:42:37.599Z,26.31
2018-06-30T10:44:31.381Z,26.31
2018-06-30T10:45:30.951Z,26.31
2018-06-30T10:47:24.534Z,26.31
2018-06-30T10:48:24.288Z,26.31
2018-06-30T10:50:18.005Z,26.31
2018-06-30T10:51:17.641Z,26.41
2018-06-30T10:53:11.551Z,26.21
2018-06-30T10:54:11.341Z,26.41
2018-06-30T10:56:04.722Z,26.41
2018-06-30T10:57:04.382Z,26.21
2018-06-30T10:58:57.902Z,26.21
2018-06-30T10:59:57.702Z,26.21
2018-06-30T11:01:51.399Z,26.31
2018-06-30T11:02:51.031Z,26.21
2018-06-30T11:04:44.588Z,26.31
2018-06-30T11:05:44.407Z,26.31
2018-06-30T11:07:38.115Z,26.21
2018-06-30T11:08:38.110Z,26.41
2018-06-30T11:10:31.908Z,26.21
2018-06-30T11:11:31.434Z,26.21
2018-06-30T11:13:24.451Z,26.31
2018-06-30T11:14:24.768Z,26.31
2018-06-30T11:16:18.019Z,26.41
2018-06-30T11:17:17.774Z,26.31
2018-06-30T11:19:11.162Z,26.21
2018-06-30T11:20:11.171Z,26.41
2018-06-30T11:22:05.643Z,26.21
2018-06-30T11:23:04.491Z,26.31
2018-06-30T11:24:58.434Z,26.21
2018-06-30T11:25:58.149Z,26.12
2018-06-30T11:27:51.769Z,26.31
2018-06-30T11:28:51.180Z,26.31
2018-06-30T11:30:44.879Z,26.31
2018-06-30T11:31:44.863Z,26.31
2018-06-30T11:33:38.124Z,26.31
2018-06-30T11:34:38.200Z,26.31
2018-06-30T11:36:31.216Z,26.31
2018-06-30T11:37:31.551Z,26.21
2018-06-30T11:39:24.770Z,26.31
2018-06-30T11:40:24.594Z,26.31
2018-06-30T11:42:17.919Z,26.41
2018-06-30T11:43:17.903Z,26.31
2018-06-30T11:45:12.052Z,26.41
2018-06-30T11:46:11.610Z,26.31
2018-06-30T11:48:04.962Z,26.61
2018-06-30T11:49:04.608Z,26.21
2018-06-30T11:50:58.189Z,26.21
2018-06-30T11:51:58.324Z,26.31
2018-06-30T11:53:51.337Z,26.21
2018-06-30T11:54:51.317Z,26.41
2018-06-30T11:56:44.942Z,26.03
2018-06-30T11:57:44.660Z,26.12
2018-06-30T11:59:38.028Z,26.12
2018-06-30T12:00:38.029Z,26.21
2018-06-30T12:02:31.544Z,26.21
2018-06-30T12:03:31.386Z,26.21
2018-06-30T12:05:24.564Z,26.31
2018-06-30T12:06:24.223Z,26.21
2018-06-30T12:08:17.803Z,26.31
2018-06-30T12:09:17.924Z,26.21
2018-06-30T12:11:11.272Z,26.41
2018-06-30T12:12:10.925Z,26.31
2018-06-30T12:14:04.459Z,26.12
2018-06-30T12:15:04.276Z,26.31
2018-06-30T12:16:57.949Z,26.12
2018-06-30T12:17:57.629Z,26.31
2018-06-30T12:19:51.520Z,26.21
2018-06-30T12:20:50.967Z,26.21
2018-06-30T12:22:44.672Z,26.51
2018-06-30T12:23:44.651Z,26.21
2018-06-30T12:25:37.888Z,26.21
2018-06-30T12:26:37.648Z,26.21
2018-06-30T12:28:31.007Z,26.31
2018-06-30T12:29:31.000Z,26.59
2018-06-30T12:31:25.451Z,26.12
2018-06-30T12:32:24.687Z,26.51
2018-06-30T12:34:17.700Z,26.50
2018-06-30T12:35:17.678Z,26.40
2018-06-30T12:37:11.624Z,26.12
2018-06-30T12:38:11.382Z,26.40
2018-06-30T12:40:04.394Z,26.10
2018-06-30T12:41:04.393Z,26.21
2018-06-30T12:42:58.315Z,26.50
2018-06-30T12:43:57.743Z,26.10
2018-06-30T12:45:51.105Z,26.20
2018-06-30T12:46:51.093Z,26.50
2018-06-30T12:48:44.641Z,26.51
2018-06-30T12:49:44.807Z,26.50
2018-06-30T12:51:37.779Z,26.20
2018-06-30T12:52:38.104Z,26.50
2018-06-30T12:54:31.399Z,26.30
2018-06-30T12:55:31.148Z,26.40
2018-06-30T12:57:24.830Z,26.30
2018-06-30T12:58:24.801Z,26.41
2018-06-30T13:00:18.987Z,26.59
2018-06-30T13:01:18.172Z,26.40
2018-06-30T13:03:12.090Z,26.20
2018-06-30T13:04:11.504Z,26.50
2018-06-30T13:06:05.051Z,26.50
2018-06-30T13:07:04.500Z,26.59
2018-06-30T13:08:58.458Z,26.50
2018-06-30T13:09:57.870Z,26.30
2018-06-30T13:11:51.772Z,26.59
2018-06-30T13:12:51.610Z,26.59
2018-06-30T13:14:44.904Z,26.59
2018-06-30T13:15:44.885Z,26.61
2018-06-30T13:17:38.474Z,26.40
2018-06-30T13:18:38.226Z,26.59
2018-06-30T13:20:32.198Z,26.50
2018-06-30T13:21:31.261Z,26.21
2018-06-30T13:23:24.850Z,26.59
2018-06-30T13:24:24.950Z,26.40
2018-06-30T13:26:17.962Z,26.61
2018-06-30T13:27:18.279Z,26.50
2018-06-30T13:29:11.851Z,26.30
2018-06-30T13:30:11.649Z,26.40
2018-06-30T13:32:04.998Z,26.50
2018-06-30T13:33:05.005Z,26.50
2018-06-30T13:34:58.560Z,26.40
2018-06-30T13:35:57.997Z,26.40
2018-06-30T13:37:51.679Z,26.40
2018-06-30T13:38:51.697Z,26.40
2018-06-30T13:40:45.555Z,26.68
2018-06-30T13:41:44.727Z,26.59
2018-06-30T13:43:38.459Z,26.40
2018-06-30T13:44:38.056Z,26.50
2018-06-30T13:46:31.632Z,26.50
2018-06-30T13:47:31.734Z,26.40
2018-06-30T13:49:25.094Z,26.50
2018-06-30T13:50:24.729Z,26.40
2018-06-30T13:52:18.878Z,26.40
2018-06-30T13:53:18.428Z,26.50
2018-06-30T13:55:11.757Z,26.50
2018-06-30T13:56:11.453Z,26.50
2018-06-30T13:58:05.311Z,26.59
2018-06-30T13:59:05.104Z,26.40
2018-06-30T14:00:58.499Z,26.50
2018-06-30T14:01:58.133Z,26.40
2018-06-30T14:03:52.064Z,26.40
2018-06-30T14:04:51.791Z,26.50
2018-06-30T14:06:45.151Z,26.40
2018-06-30T14:07:44.827Z,26.50
2018-06-30T14:09:39.321Z,26.40
2018-06-30T14:10:38.143Z,26.50
2018-06-30T14:12:31.522Z,26.59
2018-06-30T14:13:31.858Z,26.41
2018-06-30T14:15:25.390Z,26.40
2018-06-30T14:16:24.856Z,26.40
2018-06-30T14:18:18.575Z,26.50
2018-06-30T14:19:18.524Z,26.50
2018-06-30T14:21:12.104Z,26.50
2018-06-30T14:22:11.895Z,26.40
2018-06-30T14:24:04.915Z,26.40
2018-06-30T14:25:04.904Z,26.50
2018-06-30T14:26:58.483Z,26.50
2018-06-30T14:27:58.231Z,26.30
2018-06-30T14:29:51.939Z,26.30
2018-06-30T14:30:51.585Z,26.40
2018-06-30T14:32:45.753Z,26.40
2018-06-30T14:33:45.260Z,26.40
2018-06-30T14:35:38.304Z,26.40
2018-06-30T14:36:38.281Z,26.50
2018-06-30T14:38:31.881Z,26.50
2018-06-30T14:39:31.972Z,26.50
2018-06-30T14:41:25.339Z,26.40
2018-06-30T14:42:24.996Z,26.50
2018-06-30T14:44:18.558Z,26.40
2018-06-30T14:45:18.348Z,26.50
2018-06-30T14:47:12.270Z,26.50
2018-06-30T14:48:12.030Z,26.50
2018-06-30T14:50:05.591Z,26.59
2018-06-30T14:51:05.361Z,26.50
2018-06-30T14:52:58.699Z,26.40
2018-06-30T14:53:58.384Z,26.59
2018-06-30T14:55:52.252Z,26.50
2018-06-30T14:56:51.730Z,26.30
2018-06-30T14:58:45.673Z,26.50
2018-06-30T14:59:45.074Z,26.50
2018-06-30T15:01:38.604Z,26.40
2018-06-30T15:02:38.737Z,26.50
2018-06-30T15:04:31.770Z,26.59
2018-06-30T15:05:31.771Z,26.40
2018-06-30T15:07:25.976Z,26.40
2018-06-30T15:08:25.088Z,26.40
2018-06-30T15:10:18.449Z,26.50
2018-06-30T15:11:18.448Z,26.50
2018-06-30T15:13:12.053Z,26.50
2018-06-30T15:14:11.816Z,26.40
2018-06-30T15:16:05.505Z,26.40
2018-06-30T15:17:05.476Z,26.50
2018-06-30T15:18:59.095Z,26.40
2018-06-30T15:19:58.827Z,26.50
2018-06-30T15:21:52.184Z,26.50
2018-06-30T15:22:51.864Z,26.40
2018-06-30T15:24:45.787Z,26.40
2018-06-30T15:25:45.198Z,26.40
2018-06-30T15:27:38.542Z,26.40
2018-06-30T15:28:38.528Z,26.40
2018-06-30T15:30:32.112Z,26.40
2018-06-30T15:31:31.892Z,26.40
2018-06-30T15:33:25.568Z,26.40
2018-06-30T15:34:25.215Z,26.40
2018-06-30T15:36:18.802Z,26.40
2018-06-30T15:37:18.565Z,26.40
2018-06-30T15:39:11.936Z,26.50
2018-06-30T15:40:12.269Z,26.30
2018-06-30T15:42:05.518Z,26.40
2018-06-30T15:43:05.271Z,26.40
2018-06-30T15:44:58.972Z,26.40
2018-06-30T15:45:58.943Z,26.59
2018-06-30T15:47:52.507Z,26.40
2018-06-30T15:48:51.971Z,26.40
2018-06-30T15:50:45.933Z,26.40
2018-06-30T15:51:45.314Z,26.30
2018-06-30T15:53:38.900Z,26.40
2018-06-30T15:54:39.003Z,26.40
2018-06-30T15:56:32.350Z,26.40
2018-06-30T15:57:31.997Z,26.40
2018-06-30T15:59:25.424Z,26.40
2018-06-30T16:00:25.219Z,26.59
2018-06-30T16:02:18.232Z,26.50
2018-06-30T16:03:18.562Z,26.40
2018-06-30T16:05:12.125Z,26.40
2018-06-30T16:06:11.564Z,26.40
2018-06-30T16:08:04.942Z,26.50
2018-06-30T16:09:04.924Z,26.30
2018-06-30T16:10:58.804Z,26.40
2018-06-30T16:11:58.591Z,26.40
2018-06-30T16:13:51.936Z,26.50
2018-06-30T16:14:51.930Z,26.50
2018-06-30T16:16:46.090Z,26.40
2018-06-30T16:17:44.965Z,26.50
2018-06-30T16:19:38.631Z,26.40
2018-06-30T16:20:38.629Z,26.40
2018-06-30T16:22:32.220Z,26.50
2018-06-30T16:23:31.969Z,26.50
2018-06-30T16:25:25.352Z,26.59
2018-06-30T16:26:25.002Z,26.40
2018-06-30T16:28:18.859Z,26.50
2018-06-30T16:29:18.681Z,26.50
2018-06-30T16:31:12.018Z,26.50
2018-06-30T16:32:12.008Z,26.40
2018-06-30T16:34:05.557Z,26.50
2018-06-30T16:35:05.364Z,26.50
2018-06-30T16:36:59.301Z,26.50
2018-06-30T16:37:58.394Z,26.59
2018-06-30T16:39:52.291Z,26.40
2018-06-30T16:40:52.056Z,26.50
2018-06-30T16:42:45.427Z,26.40
2018-06-30T16:43:45.479Z,26.40
2018-06-30T16:45:38.589Z,26.40
2018-06-30T16:46:38.737Z,26.50
2018-06-30T16:48:31.767Z,26.50
2018-06-30T16:49:31.761Z,26.50
2018-06-30T16:51:25.936Z,26.50
2018-06-30T16:52:25.438Z,26.50
2018-06-30T16:54:18.793Z,26.50
2018-06-30T16:55:18.794Z,26.30
2018-06-30T16:57:12.360Z,26.20
2018-06-30T16:58:12.138Z,26.50
2018-06-30T17:00:05.495Z,26.59
2018-06-30T17:01:05.487Z,26.59
2018-06-30T17:02:58.770Z,26.30
2018-06-30T17:03:58.340Z,26.78
2018-06-30T17:05:51.698Z,26.50
2018-06-30T17:06:51.678Z,26.20
2018-06-30T17:08:44.924Z,26.78
2018-06-30T17:09:45.028Z,26.68
2018-06-30T17:11:38.652Z,26.30
2018-06-30T17:12:38.396Z,26.68
2018-06-30T17:14:31.641Z,26.68
2018-06-30T17:15:31.386Z,26.68
2018-06-30T17:17:24.745Z,26.68
2018-06-30T17:18:24.751Z,26.50
2018-06-30T17:20:18.659Z,26.40
2018-06-30T17:21:18.100Z,26.59
2018-06-30T17:23:11.449Z,26.68
2018-06-30T17:24:11.439Z,26.68
2018-06-30T17:26:05.039Z,26.68
2018-06-30T17:27:05.123Z,26.68
2018-06-30T17:28:58.125Z,26.68
2018-06-30T17:29:58.138Z,26.68
2018-06-30T17:31:52.043Z,26.68
2018-06-30T17:32:51.472Z,26.68
2018-06-30T17:34:45.412Z,26.68
2018-06-30T17:35:45.150Z,26.68
2018-06-30T17:37:38.969Z,26.68
2018-06-30T17:38:38.178Z,26.68
2018-06-30T17:40:31.867Z,26.68
2018-06-30T17:41:31.858Z,26.59
2018-06-30T17:43:25.467Z,26.68
2018-06-30T17:44:24.884Z,26.78
2018-06-30T17:46:19.162Z,26.68
2018-06-30T17:47:18.229Z,26.68
2018-06-30T17:49:11.784Z,26.59
2018-06-30T17:50:11.554Z,26.68
2018-06-30T17:52:05.247Z,26.68
2018-06-30T17:53:05.236Z,26.68
2018-06-30T17:54:58.824Z,26.59
2018-06-30T17:55:58.599Z,26.59
2018-06-30T17:57:51.944Z,26.59
2018-06-30T17:58:51.601Z,26.50
2018-06-30T18:00:45.145Z,26.50
2018-06-30T18:01:44.948Z,26.68
2018-06-30T18:03:38.366Z,26.59
2018-06-30T18:04:38.628Z,26.68
2018-06-30T18:06:32.189Z,26.68
2018-06-30T18:07:31.630Z,26.68
2018-06-30T18:09:25.913Z,26.59
2018-06-30T18:10:25.047Z,26.68
2018-06-30T18:12:18.884Z,26.68
2018-06-30T18:13:18.327Z,26.68
2018-06-30T18:15:12.622Z,26.59
2018-06-30T18:16:12.031Z,26.68
2018-06-30T18:18:05.603Z,26.78
2018-06-30T18:19:05.024Z,26.68
2018-06-30T18:20:58.371Z,26.68
2018-06-30T18:21:58.696Z,26.68
2018-06-30T18:23:52.232Z,26.78
2018-06-30T18:24:51.710Z,26.68
2018-06-30T18:26:45.419Z,26.59
2018-06-30T18:27:45.389Z,26.68
2018-06-30T18:29:38.634Z,26.68
2018-06-30T18:30:38.404Z,26.68
2018-06-30T18:32:31.748Z,26.68
2018-06-30T18:33:32.097Z,26.68
2018-06-30T18:35:25.678Z,26.68